createdAt,value
2017-11-14T00:01:15.939Z,1.20
2017-11-14T00:03:43.904Z,1.00
2017-11-14T00:06:11.767Z,0.80
2017-11-14T00:08:39.646Z,0.80
2017-11-14T00:11:08.301Z,0.60
2017-11-14T00:13:36.101Z,0.60
2017-11-14T00:16:04.676Z,0.40
2017-11-14T00:18:32.540Z,0.40
2017-11-14T00:21:00.323Z,0.30
2017-11-14T00:23:28.858Z,0.20
2017-11-14T00:25:56.757Z,0.20
2017-11-14T00:28:25.617Z,0.40
2017-11-14T00:30:53.378Z,0.40
2017-11-14T00:33:21.294Z,0.30
2017-11-14T00:35:50.048Z,0.00
2017-11-14T00:38:17.812Z,-0.10
2017-11-14T00:40:45.568Z,-0.10
2017-11-14T00:43:13.369Z,-0.20
2017-11-14T00:45:42.852Z,0.00
2017-11-14T00:48:10.598Z,0.00
2017-11-14T00:50:38.486Z,0.10
2017-11-14T00:53:06.279Z,0.10
2017-11-14T00:55:34.932Z,0.20
2017-11-14T00:58:02.803Z,0.20
2017-11-14T01:00:30.746Z,0.30
2017-11-14T01:02:59.533Z,0.30
2017-11-14T01:05:27.502Z,0.40
2017-11-14T01:07:55.365Z,0.40
2017-11-14T01:10:23.160Z,0.30
2017-11-14T01:12:51.836Z,0.00
2017-11-14T01:15:19.893Z,-0.10
2017-11-14T01:17:47.651Z,-0.20
2017-11-14T01:20:15.549Z,-0.30
2017-11-14T01:22:43.356Z,-0.40
2017-11-14T01:25:11.265Z,-0.40
2017-11-14T01:27:39.145Z,-0.40
2017-11-14T01:30:07.008Z,-0.50
2017-11-14T01:32:34.835Z,-0.30
2017-11-14T01:35:02.744Z,-0.30
2017-11-14T01:37:30.603Z,-0.10
2017-11-14T01:39:58.569Z,0.00
2017-11-14T01:42:26.441Z,0.10
2017-11-14T01:44:54.322Z,0.30
2017-11-14T01:47:22.846Z,0.40
2017-11-14T01:49:50.647Z,0.40
2017-11-14T01:52:18.519Z,0.30
2017-11-14T01:54:46.479Z,0.20
2017-11-14T01:57:14.278Z,0.00
2017-11-14T01:59:43.650Z,0.00
2017-11-14T02:02:11.496Z,0.00
2017-11-14T02:04:40.117Z,0.20
2017-11-14T02:07:08.069Z,0.20
2017-11-14T02:09:36.021Z,0.10
2017-11-14T02:12:03.865Z,0.20
2017-11-14T02:14:31.640Z,0.40
2017-11-14T02:16:59.526Z,0.50
2017-11-14T02:19:27.413Z,0.40
2017-11-14T02:21:55.235Z,0.20
2017-11-14T02:24:23.132Z,0.00
2017-11-14T02:27:06.837Z,0.00
2017-11-14T02:29:34.639Z,-0.10
2017-11-14T02:32:02.587Z,-0.20
2017-11-14T02:34:30.575Z,-0.40
2017-11-14T02:36:58.544Z,-0.30
2017-11-14T02:39:26.507Z,-0.20
2017-11-14T02:41:54.406Z,-0.20
2017-11-14T02:44:23.674Z,-0.30
2017-11-14T02:46:51.522Z,-0.30
2017-11-14T02:49:19.364Z,-0.30
2017-11-14T02:51:47.299Z,-0.30
2017-11-14T02:54:16.046Z,-0.30
2017-11-14T02:56:43.866Z,-0.40
2017-11-14T02:59:11.689Z,-0.40
2017-11-14T03:01:39.494Z,-0.30
2017-11-14T03:04:07.268Z,-0.20
2017-11-14T03:06:35.065Z,-0.10
2017-11-14T03:09:03.036Z,-0.10
2017-11-14T03:11:30.936Z,-0.20
2017-11-14T03:13:58.982Z,-0.20
2017-11-14T03:16:26.828Z,-0.10
2017-11-14T03:18:55.629Z,0.00
2017-11-14T03:21:23.409Z,0.10
2017-11-14T03:23:51.256Z,0.30
2017-11-14T03:26:19.077Z,0.30
2017-11-14T03:28:47.810Z,0.40
2017-11-14T03:31:15.648Z,0.30
2017-11-14T03:33:43.462Z,0.30
2017-11-14T03:36:12.057Z,0.50
2017-11-14T03:38:39.910Z,0.50
2017-11-14T03:41:07.770Z,0.40
2017-11-14T03:43:35.653Z,0.50
2017-11-14T03:46:03.472Z,0.40
2017-11-14T03:48:31.301Z,0.40
2017-11-14T03:50:59.894Z,0.20
2017-11-14T03:53:28.023Z,0.20
2017-11-14T03:55:55.991Z,0.20
2017-11-14T03:58:23.976Z,0.20
2017-11-14T04:00:51.962Z,0.30
2017-11-14T04:03:20.638Z,0.30
2017-11-14T04:05:49.201Z,0.30
2017-11-14T04:08:17.259Z,0.30
2017-11-14T04:10:46.170Z,0.30
2017-11-14T04:13:13.966Z,0.30
2017-11-14T04:15:41.892Z,0.20
2017-11-14T04:18:09.945Z,0.20
2017-11-14T04:20:38.037Z,0.30
2017-11-14T04:23:06.645Z,0.30
2017-11-14T04:25:35.195Z,0.30
2017-11-14T04:28:03.277Z,0.30
2017-11-14T04:30:31.863Z,0.30
2017-11-14T04:32:59.926Z,0.30
2017-11-14T04:35:27.782Z,0.30
2017-11-14T04:37:56.580Z,0.30
2017-11-14T04:40:24.547Z,0.30
2017-11-14T04:42:52.430Z,0.30
2017-11-14T04:45:20.186Z,0.30
2017-11-14T04:47:48.008Z,0.40
2017-11-14T04:50:15.806Z,0.30
2017-11-14T04:52:43.605Z,0.20
2017-11-14T04:55:12.567Z,0.30
2017-11-14T04:57:40.819Z,0.30
2017-11-14T05:00:08.817Z,0.30
2017-11-14T05:02:36.894Z,0.20
2017-11-14T05:05:05.448Z,0.20
2017-11-14T05:07:33.311Z,0.20
2017-11-14T05:10:01.095Z,0.20
2017-11-14T05:12:29.047Z,0.10
2017-11-14T05:14:57.022Z,0.10
2017-11-14T05:17:24.902Z,0.10
2017-11-14T05:19:52.950Z,0.10
2017-11-14T05:22:21.354Z,0.00
2017-11-14T05:24:49.769Z,0.00
2017-11-14T05:27:17.595Z,0.00
2017-11-14T05:29:45.438Z,0.00
2017-11-14T05:32:13.224Z,0.00
2017-11-14T05:34:41.040Z,0.00
2017-11-14T05:37:09.038Z,0.10
2017-11-14T05:39:36.813Z,0.10
2017-11-14T05:42:04.689Z,0.00
2017-11-14T05:44:33.048Z,0.00
2017-11-14T05:47:00.843Z,0.00
2017-11-14T05:49:28.779Z,0.00
2017-11-14T05:51:56.685Z,0.00
2017-11-14T05:54:25.313Z,0.00
2017-11-14T05:56:53.111Z,0.00
2017-11-14T05:59:21.089Z,0.10
2017-11-14T06:01:48.943Z,0.10
2017-11-14T06:04:16.796Z,0.10
2017-11-14T06:06:44.557Z,0.00
2017-11-14T06:09:12.343Z,0.00
2017-11-14T06:11:40.213Z,-0.10
2017-11-14T06:14:08.086Z,-0.20
2017-11-14T06:16:35.923Z,-0.10
2017-11-14T06:19:03.782Z,-0.20
2017-11-14T06:21:31.676Z,-0.10
2017-11-14T06:24:00.366Z,-0.10
2017-11-14T06:26:28.548Z,-0.10
2017-11-14T06:28:57.217Z,-0.10
2017-11-14T06:31:25.085Z,-0.10
2017-11-14T06:33:53.102Z,-0.10
2017-11-14T06:36:21.223Z,-0.10
2017-11-14T06:38:49.089Z,-0.10
2017-11-14T06:41:17.156Z,-0.30
2017-11-14T06:43:45.421Z,-0.20
2017-11-14T06:46:13.418Z,-0.30
2017-11-14T06:48:41.474Z,-0.30
2017-11-14T06:51:09.239Z,-0.40
2017-11-14T06:53:37.211Z,-0.40
2017-11-14T06:56:05.471Z,-0.40
2017-11-14T06:58:34.027Z,-0.30
2017-11-14T07:01:02.455Z,-0.30
2017-11-14T07:03:31.281Z,-0.30
2017-11-14T07:05:59.209Z,-0.30
2017-11-14T07:08:27.056Z,-0.20
2017-11-14T07:10:54.941Z,-0.20
2017-11-14T07:13:22.695Z,-0.20
2017-11-14T07:15:50.582Z,-0.10
2017-11-14T07:18:18.405Z,-0.10
2017-11-14T07:20:46.303Z,0.00
2017-11-14T07:23:14.270Z,0.00
2017-11-14T07:25:42.108Z,0.00
2017-11-14T07:28:09.905Z,0.00
2017-11-14T07:30:37.668Z,0.10
2017-11-14T07:33:05.449Z,0.10
2017-11-14T07:35:34.114Z,0.20
2017-11-14T07:38:01.958Z,0.20
2017-11-14T07:40:29.746Z,0.20
2017-11-14T07:42:57.567Z,0.30
2017-11-14T07:45:25.377Z,0.40
2017-11-14T07:47:53.237Z,0.40
2017-11-14T07:50:21.921Z,0.50
2017-11-14T07:52:49.884Z,0.50
2017-11-14T07:55:17.737Z,0.50
2017-11-14T07:57:45.673Z,0.60
2017-11-14T08:00:13.491Z,0.70
2017-11-14T08:02:41.357Z,0.80
2017-11-14T08:05:09.303Z,0.80
2017-11-14T08:07:37.168Z,0.90
2017-11-14T08:10:05.069Z,0.90
2017-11-14T08:12:33.643Z,1.00
2017-11-14T08:15:02.325Z,1.20
2017-11-14T08:17:30.908Z,1.10
2017-11-14T08:19:58.765Z,1.30
2017-11-14T08:22:26.518Z,1.40
2017-11-14T08:24:54.332Z,1.60
2017-11-14T08:27:22.898Z,1.60
2017-11-14T08:29:50.737Z,1.50
2017-11-14T08:32:18.599Z,1.70
2017-11-14T08:34:46.488Z,1.80
2017-11-14T08:37:14.283Z,1.90
2017-11-14T08:39:42.940Z,2.00
2017-11-14T08:42:10.797Z,1.90
2017-11-14T08:44:38.572Z,2.10
2017-11-14T08:47:06.428Z,2.10
2017-11-14T08:49:34.391Z,1.90
2017-11-14T08:52:02.345Z,2.00
2017-11-14T08:54:30.094Z,2.00
2017-11-14T08:56:58.234Z,2.00
2017-11-14T08:59:26.983Z,2.10
2017-11-14T09:01:54.809Z,2.10
2017-11-14T09:04:22.738Z,2.20
2017-11-14T09:06:50.587Z,2.30
2017-11-14T09:09:19.119Z,2.50
2017-11-14T09:11:46.938Z,2.30
2017-11-14T09:14:14.800Z,2.30
2017-11-14T09:16:42.771Z,2.30
2017-11-14T09:19:10.651Z,2.40
2017-11-14T09:21:38.603Z,2.60
2017-11-14T09:24:06.500Z,2.40
2017-11-14T09:26:35.245Z,2.50
2017-11-14T09:29:03.228Z,2.50
2017-11-14T09:31:31.050Z,2.50
2017-11-14T09:33:58.885Z,2.60
2017-11-14T09:36:28.347Z,3.00
2017-11-14T09:38:56.327Z,2.90
2017-11-14T09:41:25.417Z,2.90
2017-11-14T09:43:53.256Z,2.90
2017-11-14T09:46:21.161Z,3.00
2017-11-14T09:48:49.008Z,3.00
2017-11-14T09:51:16.857Z,3.00
2017-11-14T09:53:44.866Z,2.90
2017-11-14T09:56:12.807Z,3.10
2017-11-14T09:58:40.701Z,3.30
2017-11-14T10:01:08.537Z,3.30
2017-11-14T10:03:36.429Z,3.30
2017-11-14T10:06:04.293Z,3.30
2017-11-14T10:08:32.156Z,3.30
2017-11-14T10:11:00.233Z,3.20
2017-11-14T10:13:28.108Z,3.30
2017-11-14T10:15:56.056Z,3.20
2017-11-14T10:18:24.092Z,3.40
2017-11-14T10:20:52.017Z,3.40
2017-11-14T10:23:20.164Z,3.60
2017-11-14T10:25:48.147Z,3.50
2017-11-14T10:28:16.015Z,3.50
2017-11-14T10:30:44.190Z,3.40
2017-11-14T10:33:12.156Z,3.50
2017-11-14T10:35:40.019Z,3.60
2017-11-14T10:38:07.989Z,3.60
2017-11-14T10:40:35.866Z,3.60
2017-11-14T10:43:03.718Z,3.90
2017-11-14T10:45:31.684Z,3.80
2017-11-14T10:47:59.760Z,3.60
2017-11-14T10:50:28.098Z,3.90
2017-11-14T10:52:56.014Z,3.80
2017-11-14T10:55:23.856Z,3.70
2017-11-14T10:57:52.154Z,3.60
2017-11-14T11:00:25.723Z,3.70
2017-11-14T11:02:53.704Z,4.10
2017-11-14T11:05:21.674Z,4.20
2017-11-14T11:07:49.495Z,4.10
2017-11-14T11:10:17.624Z,3.90
2017-11-14T11:12:45.463Z,3.90
2017-11-14T11:15:13.355Z,4.00
2017-11-14T11:17:41.228Z,4.10
2017-11-14T11:20:09.139Z,4.20
2017-11-14T11:22:37.160Z,4.10
2017-11-14T11:25:05.411Z,4.20
2017-11-14T11:27:33.315Z,4.10
2017-11-14T11:30:02.201Z,4.20
2017-11-14T11:32:30.065Z,4.20
2017-11-14T11:34:57.923Z,4.30
2017-11-14T11:37:26.700Z,4.20
2017-11-14T11:39:54.689Z,4.40
2017-11-14T11:42:22.688Z,4.50
2017-11-14T11:44:51.452Z,4.70
2017-11-14T11:47:19.416Z,4.70
2017-11-14T11:49:47.388Z,4.70
2017-11-14T11:52:16.876Z,5.10
2017-11-14T11:54:44.847Z,5.10
2017-11-14T11:57:12.741Z,5.30
2017-11-14T11:59:40.690Z,5.50
2017-11-14T12:02:08.874Z,5.80
2017-11-14T12:04:36.917Z,6.00
2017-11-14T12:07:04.913Z,6.20
2017-11-14T12:09:32.985Z,6.30
2017-11-14T12:12:01.133Z,6.20
2017-11-14T12:14:29.012Z,5.50
2017-11-14T12:16:57.073Z,5.20
2017-11-14T12:19:24.961Z,5.00
2017-11-14T12:21:52.943Z,4.80
2017-11-14T12:24:21.698Z,4.50
2017-11-14T12:26:49.600Z,4.50
2017-11-14T12:29:18.349Z,4.30
2017-11-14T12:31:46.318Z,4.30
2017-11-14T12:34:14.290Z,4.30
2017-11-14T12:36:42.359Z,4.30
2017-11-14T12:39:10.342Z,4.10
2017-11-14T12:41:52.226Z,4.10
2017-11-14T12:44:20.394Z,4.30
2017-11-14T12:46:48.296Z,4.50
2017-11-14T12:49:17.205Z,4.80
2017-11-14T12:51:45.232Z,5.00
2017-11-14T12:54:13.494Z,5.10
2017-11-14T12:56:41.568Z,5.00
2017-11-14T12:59:09.444Z,5.00
2017-11-14T13:01:40.837Z,4.90
2017-11-14T13:04:08.992Z,5.00
2017-11-14T13:06:37.036Z,5.00
2017-11-14T13:09:05.096Z,4.90
2017-11-14T13:11:33.034Z,5.00
2017-11-14T13:14:01.039Z,5.00
2017-11-14T13:16:28.908Z,4.90
2017-11-14T13:18:56.813Z,4.90
2017-11-14T13:21:25.677Z,4.90
2017-11-14T13:23:53.671Z,4.90
2017-11-14T13:26:22.426Z,5.00
2017-11-14T13:28:50.491Z,5.00
2017-11-14T13:31:18.767Z,5.10
2017-11-14T13:33:46.878Z,5.20
2017-11-14T13:36:15.727Z,5.80
2017-11-14T13:38:44.728Z,5.70
2017-11-14T13:41:12.508Z,6.00
2017-11-14T13:43:41.200Z,5.90
2017-11-14T13:46:09.239Z,5.60
2017-11-14T13:48:37.240Z,5.70
2017-11-14T13:51:05.387Z,5.90
2017-11-14T13:53:33.255Z,6.10
2017-11-14T13:56:01.238Z,6.10
2017-11-14T13:58:29.312Z,5.70
2017-11-14T14:00:57.288Z,6.00
2017-11-14T14:03:25.351Z,6.60
2017-11-14T14:05:53.303Z,7.00
2017-11-14T14:08:21.266Z,7.50
2017-11-14T14:10:49.149Z,7.60
2017-11-14T14:13:16.975Z,7.70
2017-11-14T14:15:45.069Z,8.00
2017-11-14T14:18:13.140Z,8.00
2017-11-14T14:20:40.961Z,7.90
2017-11-14T14:23:09.591Z,8.00
2017-11-14T14:25:37.474Z,8.00
2017-11-14T14:28:05.284Z,7.70
2017-11-14T14:30:33.211Z,7.60
2017-11-14T14:33:01.220Z,7.10
2017-11-14T14:35:29.244Z,6.40
2017-11-14T14:37:58.133Z,6.10
2017-11-14T14:40:25.920Z,6.40
2017-11-14T14:42:54.678Z,6.40
2017-11-14T14:45:22.773Z,6.40
2017-11-14T14:47:50.607Z,6.40
2017-11-14T14:50:19.157Z,6.50
2017-11-14T14:52:46.984Z,6.40
2017-11-14T14:55:15.059Z,5.80
2017-11-14T14:57:43.116Z,5.60
2017-11-14T15:00:10.963Z,5.20
2017-11-14T15:02:38.835Z,5.10
2017-11-14T15:05:07.130Z,4.90
2017-11-14T15:07:35.735Z,4.70
2017-11-14T15:10:04.303Z,4.40
2017-11-14T15:12:32.160Z,4.40
2017-11-14T15:15:04.624Z,4.30
2017-11-14T15:17:32.679Z,4.30
2017-11-14T15:20:00.579Z,4.20
2017-11-14T15:22:28.520Z,4.00
2017-11-14T15:24:56.313Z,4.00
2017-11-14T15:27:25.076Z,3.90
2017-11-14T15:29:53.144Z,3.80
2017-11-14T15:32:21.528Z,3.80
2017-11-14T15:34:49.414Z,3.70
2017-11-14T15:37:17.399Z,3.60
2017-11-14T15:39:46.031Z,3.40
2017-11-14T15:42:13.909Z,3.40
2017-11-14T15:44:41.703Z,3.40
2017-11-14T15:47:10.464Z,3.30
2017-11-14T15:49:47.130Z,3.30
2017-11-14T15:52:15.140Z,3.30
2017-11-14T15:54:43.921Z,3.20
2017-11-14T15:57:11.780Z,3.20
2017-11-14T15:59:39.746Z,3.20
2017-11-14T16:02:07.967Z,3.10
2017-11-14T16:04:35.862Z,3.00
2017-11-14T16:07:08.530Z,2.90
2017-11-14T16:09:37.332Z,2.90
2017-11-14T16:12:05.304Z,3.00
2017-11-14T16:14:33.187Z,2.90
2017-11-14T16:17:01.067Z,2.80
2017-11-14T16:19:29.822Z,2.90
2017-11-14T16:21:57.807Z,2.80
2017-11-14T16:24:25.658Z,2.80
2017-11-14T16:26:53.417Z,2.70
2017-11-14T16:29:22.493Z,2.60
2017-11-14T16:31:50.400Z,2.60
2017-11-14T16:34:18.780Z,2.40
2017-11-14T16:36:47.892Z,2.30
2017-11-14T16:39:16.030Z,2.30
2017-11-14T16:41:43.918Z,2.30
2017-11-14T16:44:11.764Z,2.20
2017-11-14T16:46:39.628Z,2.30
2017-11-14T16:49:07.521Z,2.20
2017-11-14T16:51:35.365Z,2.10
2017-11-14T16:54:03.181Z,2.10
2017-11-14T16:56:31.925Z,1.70
2017-11-14T16:59:00.183Z,1.70
2017-11-14T17:01:28.090Z,1.50
2017-11-14T17:03:56.054Z,1.60
2017-11-14T17:06:24.203Z,1.60
2017-11-14T17:08:57.308Z,1.30
2017-11-14T17:11:25.499Z,1.30
2017-11-14T17:13:54.270Z,1.30
2017-11-14T17:16:22.332Z,1.30
2017-11-14T17:18:50.116Z,1.30
2017-11-14T17:21:19.283Z,1.10
2017-11-14T17:23:47.178Z,1.10
2017-11-14T17:26:15.529Z,0.90
2017-11-14T17:28:43.306Z,0.80
2017-11-14T17:31:11.469Z,0.60
2017-11-14T17:33:39.333Z,0.40
2017-11-14T17:36:07.397Z,0.30
2017-11-14T17:38:35.880Z,0.30
2017-11-14T17:41:05.520Z,0.20
2017-11-14T17:43:33.374Z,0.20
2017-11-14T17:46:01.348Z,0.30
2017-11-14T17:48:29.177Z,0.30
2017-11-14T17:50:57.153Z,0.30
2017-11-14T17:53:25.123Z,0.40
2017-11-14T17:55:53.200Z,0.50
2017-11-14T17:58:21.183Z,0.50
2017-11-14T18:00:49.029Z,0.60
2017-11-14T18:03:17.155Z,0.60
2017-11-14T18:05:45.786Z,0.20
2017-11-14T18:08:13.584Z,0.20
2017-11-14T18:10:41.433Z,0.00
2017-11-14T18:13:09.976Z,0.10
2017-11-14T18:15:37.784Z,0.10
2017-11-14T18:18:05.749Z,0.20
2017-11-14T18:20:35.024Z,0.40
2017-11-14T18:23:02.906Z,0.40
2017-11-14T18:25:30.915Z,0.40
2017-11-14T18:27:59.598Z,0.30
2017-11-14T18:30:28.243Z,0.40
2017-11-14T18:32:56.025Z,0.40
2017-11-14T18:35:23.989Z,0.40
2017-11-14T18:37:51.938Z,0.20
2017-11-14T18:40:20.266Z,0.20
2017-11-14T18:42:48.219Z,0.10
2017-11-14T18:45:17.177Z,0.20
2017-11-14T18:47:45.065Z,0.20
2017-11-14T18:50:13.059Z,0.50
2017-11-14T18:52:41.837Z,0.50
2017-11-14T18:55:09.676Z,0.50
2017-11-14T18:57:37.772Z,0.60
2017-11-14T19:00:07.363Z,0.60
2017-11-14T19:02:35.315Z,0.60
2017-11-14T19:05:03.303Z,0.70
2017-11-14T19:07:32.285Z,0.70
2017-11-14T19:10:00.354Z,0.80
2017-11-14T19:12:28.347Z,0.80
2017-11-14T19:14:56.402Z,0.80
2017-11-14T19:17:24.356Z,1.00
2017-11-14T19:19:52.353Z,0.90
2017-11-14T19:22:21.134Z,0.80
2017-11-14T19:24:49.004Z,0.90
2017-11-14T19:27:16.827Z,0.80
2017-11-14T19:29:44.857Z,0.90
2017-11-14T19:32:13.719Z,0.90
2017-11-14T19:34:43.415Z,1.00
2017-11-14T19:37:11.497Z,1.00
2017-11-14T19:39:40.275Z,0.80
2017-11-14T19:42:08.264Z,0.80
2017-11-14T19:44:36.476Z,0.90
2017-11-14T19:47:04.501Z,0.80
2017-11-14T19:49:32.384Z,0.80
2017-11-14T19:52:00.232Z,0.80
2017-11-14T19:54:28.219Z,0.90
2017-11-14T19:56:56.971Z,1.00
2017-11-14T19:59:25.187Z,0.90
2017-11-14T20:01:54.056Z,0.90
2017-11-14T20:04:22.141Z,0.80
2017-11-14T20:06:50.902Z,0.80
2017-11-14T20:09:19.110Z,0.70
2017-11-14T20:11:47.960Z,0.60
2017-11-14T20:14:15.855Z,0.60
2017-11-14T20:16:44.619Z,0.50
2017-11-14T20:19:12.583Z,0.50
2017-11-14T20:21:41.790Z,0.50
2017-11-14T20:24:10.718Z,0.40
2017-11-14T20:26:39.580Z,0.40
2017-11-14T20:29:07.761Z,0.40
2017-11-14T20:31:36.563Z,0.40
2017-11-14T20:34:06.886Z,0.50
2017-11-14T20:36:36.041Z,0.50
2017-11-14T20:39:05.248Z,0.50
2017-11-14T20:41:33.867Z,0.50
2017-11-14T20:44:02.507Z,0.60
2017-11-14T20:46:30.723Z,0.50
2017-11-14T20:48:59.402Z,0.40
2017-11-14T20:51:27.437Z,0.40
2017-11-14T20:53:55.183Z,0.30
2017-11-14T20:56:23.220Z,0.30
2017-11-14T20:58:51.887Z,0.30
2017-11-14T21:01:19.847Z,0.20
2017-11-14T21:03:48.121Z,0.20
2017-11-14T21:06:16.368Z,0.30
2017-11-14T21:08:44.279Z,0.40
2017-11-14T21:11:12.843Z,0.20
2017-11-14T21:13:40.799Z,0.20
2017-11-14T21:16:09.106Z,0.30
2017-11-14T21:18:37.782Z,0.10
2017-11-14T21:21:06.852Z,0.00
2017-11-14T21:23:34.958Z,0.00
2017-11-14T21:26:03.317Z,0.20
2017-11-14T21:28:31.379Z,0.10
2017-11-14T21:30:59.441Z,-0.10
2017-11-14T21:33:27.537Z,-0.20
2017-11-14T21:35:57.226Z,-0.30
2017-11-14T21:38:25.157Z,-0.30
2017-11-14T21:40:52.964Z,-0.30
2017-11-14T21:43:21.024Z,-0.50
2017-11-14T21:45:49.010Z,-0.60
2017-11-14T21:48:16.963Z,-0.70
2017-11-14T21:50:44.887Z,-0.60
2017-11-14T21:53:13.735Z,-0.50
2017-11-14T21:55:41.645Z,-0.50
2017-11-14T21:58:09.861Z,-0.50
2017-11-14T22:00:38.018Z,-0.70
2017-11-14T22:03:06.668Z,-0.70
2017-11-14T22:05:35.339Z,-0.70
2017-11-14T22:10:56.380Z,-0.60
2017-11-14T22:13:25.352Z,-0.50
2017-11-14T22:15:53.330Z,-0.50
2017-11-14T22:18:21.367Z,-0.50
2017-11-14T22:20:49.562Z,-0.50
2017-11-14T22:23:18.211Z,-0.50
2017-11-14T22:25:47.516Z,-0.60
2017-11-14T22:28:15.412Z,-0.60
2017-11-14T22:30:43.267Z,-0.60
2017-11-14T22:33:11.968Z,-0.60
2017-11-14T22:35:40.742Z,-0.60
2017-11-14T22:38:08.796Z,-0.60
2017-11-14T22:40:36.657Z,-0.60
2017-11-14T22:43:04.755Z,-0.60
2017-11-14T22:45:47.203Z,-0.60
2017-11-14T22:48:15.813Z,-0.70
2017-11-14T22:50:44.018Z,-0.80
2017-11-14T22:53:11.888Z,-0.70
2017-11-14T22:55:40.669Z,-0.80
2017-11-14T22:58:08.548Z,-0.90
2017-11-14T23:00:36.499Z,-1.00
2017-11-14T23:03:04.566Z,-1.20
2017-11-14T23:05:33.389Z,-1.40
2017-11-14T23:08:02.310Z,-1.60
2017-11-14T23:10:30.179Z,-1.60
2017-11-14T23:12:58.170Z,-1.60
2017-11-14T23:15:26.258Z,-1.60
2017-11-14T23:17:54.107Z,-1.80
2017-11-14T23:20:22.207Z,-1.80
2017-11-14T23:22:50.265Z,-1.90
2017-11-14T23:25:18.221Z,-2.00
2017-11-14T23:27:46.218Z,-2.00
2017-11-14T23:30:14.158Z,-2.10
2017-11-14T23:32:42.021Z,-1.90
2017-11-14T23:35:09.773Z,-1.80
2017-11-14T23:37:37.962Z,-1.70
2017-11-14T23:40:05.947Z,-1.60
2017-11-14T23:42:33.941Z,-1.40
2017-11-14T23:45:02.496Z,-1.40
2017-11-14T23:47:30.551Z,-1.40
2017-11-14T23:49:58.519Z,-1.40
2017-11-14T23:52:27.411Z,-1.30
2017-11-14T23:54:55.402Z,-1.30
2017-11-14T23:57:23.485Z,-1.30
2017-11-14T23:59:51.531Z,-1.30
